createdAt,value
2023-02-23T08:50:00.676Z,7.09
2023-02-23T08:55:03.129Z,7.22
2023-02-23T09:00:03.482Z,7.41
2023-02-23T09:05:00.772Z,7.54
2023-02-23T09:10:00.638Z,7.70
2023-02-23T09:15:00.619Z,7.80
2023-02-23T09:20:00.676Z,7.87
2023-02-23T09:25:00.631Z,7.93
2023-02-23T09:30:00.663Z,7.92
2023-02-23T09:35:00.706Z,7.91
2023-02-23T09:40:00.699Z,7.93
2023-02-23T09:45:16.393Z,7.95
2023-02-23T09:50:04.998Z,7.99
2023-02-23T09:55:00.725Z,8.03
2023-02-23T10:00:02.938Z,8.11
2023-02-23T10:05:04.316Z,8.15
2023-02-23T10:10:20.546Z,8.19
2023-02-23T10:15:17.235Z,8.28
2023-02-23T10:20:04.975Z,8.36
2023-02-23T10:25:06.956Z,8.41
2023-02-23T10:30:01.267Z,8.43
2023-02-23T10:35:09.284Z,8.48
2023-02-23T10:40:01.429Z,8.54
2023-02-23T10:45:00.748Z,8.62
2023-02-23T10:50:02.248Z,8.66
2023-02-23T10:55:04.925Z,8.76
2023-02-23T11:00:05.829Z,8.82
2023-02-23T11:05:02.013Z,8.81
2023-02-23T11:10:20.525Z,8.91
2023-02-23T11:15:20.513Z,9.01
2023-02-23T11:20:05.337Z,9.03
2023-02-23T11:25:11.648Z,9.11
2023-02-23T11:30:04.755Z,9.21
2023-02-23T11:35:13.225Z,9.16
2023-02-23T11:40:12.213Z,9.12
2023-02-23T11:45:05.690Z,9.11
2023-02-23T11:50:02.746Z,9.17
2023-02-23T11:55:06.092Z,9.13
2023-02-23T12:00:11.693Z,9.06
2023-02-23T12:05:06.857Z,9.02
2023-02-23T12:10:09.862Z,8.99
2023-02-23T12:15:11.131Z,8.98
2023-02-23T12:20:08.641Z,8.98
2023-02-23T12:25:03.696Z,9.02
2023-02-23T12:30:08.376Z,9.07
2023-02-23T12:35:09.645Z,9.16
2023-02-23T12:40:11.585Z,9.20
2023-02-23T12:45:04.249Z,9.15
2023-02-23T12:50:04.988Z,9.04
2023-02-23T12:55:00.732Z,8.91
2023-02-23T13:00:04.478Z,8.82
2023-02-23T13:05:18.105Z,8.69
2023-02-23T13:10:14.548Z,8.59
2023-02-23T13:15:09.838Z,8.50
2023-02-23T13:20:13.935Z,8.49
2023-02-23T13:25:08.610Z,8.50
2023-02-23T13:30:01.934Z,8.50
2023-02-23T13:35:04.443Z,8.56
2023-02-23T13:40:14.726Z,8.62
2023-02-23T13:45:20.528Z,8.66
2023-02-23T13:50:06.352Z,8.71
2023-02-23T13:55:00.668Z,8.76
2023-02-23T14:00:01.879Z,8.82
2023-02-23T14:05:14.065Z,9.03
2023-02-23T14:10:06.286Z,9.21
2023-02-23T14:15:20.552Z,9.22
2023-02-23T14:20:13.418Z,9.15
2023-02-23T14:25:20.604Z,9.08
2023-02-23T14:30:10.686Z,8.98
2023-02-23T14:35:01.308Z,8.88
2023-02-23T14:40:15.946Z,8.86
2023-02-23T14:45:06.505Z,8.81
2023-02-23T14:50:01.441Z,8.80
2023-02-23T14:55:10.584Z,8.79
2023-02-23T15:00:06.973Z,8.80
2023-02-23T15:05:14.398Z,8.77
2023-02-23T15:10:06.509Z,8.75
2023-02-23T15:15:03.688Z,8.70
2023-02-23T15:20:15.974Z,8.62
2023-02-23T15:25:08.280Z,8.60
2023-02-23T15:30:18.225Z,8.57
2023-02-23T15:35:00.619Z,8.54
2023-02-23T15:40:03.768Z,8.53
2023-02-23T15:45:11.679Z,8.55
2023-02-23T15:50:16.501Z,8.57
2023-02-23T15:55:05.968Z,8.52
2023-02-23T16:00:13.123Z,8.47
2023-02-23T16:05:16.117Z,8.42
2023-02-23T16:10:18.360Z,8.41
2023-02-23T16:15:12.893Z,8.40
2023-02-23T16:20:15.647Z,8.39
2023-02-23T16:25:03.510Z,8.38
2023-02-23T16:30:20.520Z,8.31
2023-02-23T16:35:09.048Z,8.16
2023-02-23T16:40:00.751Z,8.05
2023-02-23T16:45:01.242Z,7.93
2023-02-23T16:50:18.955Z,7.80
2023-02-23T16:55:00.740Z,7.72
2023-02-23T17:00:01.405Z,7.61
2023-02-23T17:05:00.644Z,7.53
2023-02-23T17:10:00.658Z,7.45
2023-02-23T17:15:02.070Z,7.39
2023-02-23T17:20:00.644Z,7.30
2023-02-23T17:25:00.691Z,7.20
2023-02-23T17:30:00.632Z,7.12
2023-02-23T17:35:00.653Z,7.06
2023-02-23T17:40:00.627Z,7.02
2023-02-23T17:45:03.224Z,6.95
2023-02-23T17:50:01.072Z,6.92
2023-02-23T17:55:00.886Z,6.88
2023-02-23T18:00:01.398Z,6.80
2023-02-23T18:05:00.632Z,6.69
2023-02-23T18:10:00.828Z,6.60
2023-02-23T18:15:00.732Z,6.56
2023-02-23T18:20:00.694Z,6.54
2023-02-23T18:25:00.714Z,6.53
2023-02-23T18:30:00.687Z,6.51
2023-02-23T18:35:00.669Z,6.49
2023-02-23T18:40:00.672Z,6.41
2023-02-23T18:45:00.627Z,6.32
2023-02-23T18:50:00.641Z,6.26
2023-02-23T18:55:00.660Z,6.18
2023-02-23T19:00:01.642Z,6.12
2023-02-23T19:05:00.728Z,6.06
2023-02-23T19:10:00.695Z,6.01
2023-02-23T19:15:01.194Z,5.95
2023-02-23T19:20:00.729Z,5.86
2023-02-23T19:25:00.771Z,5.82
2023-02-23T19:30:00.674Z,5.77
2023-02-23T19:35:00.693Z,5.71
2023-02-23T19:40:02.566Z,5.67
2023-02-23T19:45:00.705Z,5.58
2023-02-23T19:50:00.634Z,5.45
2023-02-23T19:55:00.726Z,5.32
2023-02-23T20:00:01.164Z,5.20
2023-02-23T20:05:00.663Z,5.05
2023-02-23T20:10:00.633Z,4.95
2023-02-23T20:15:00.933Z,4.85
2023-02-23T20:20:01.605Z,4.77
2023-02-23T20:25:00.866Z,4.69
2023-02-23T20:30:01.080Z,4.60
2023-02-23T20:35:00.967Z,4.53
2023-02-23T20:40:00.655Z,4.46
2023-02-23T20:45:00.660Z,4.39
2023-02-23T20:50:03.356Z,4.31
2023-02-23T20:55:00.656Z,4.26
2023-02-23T21:00:03.830Z,4.13
2023-02-23T21:05:00.918Z,4.06
2023-02-23T21:10:00.651Z,3.98
2023-02-23T21:15:00.765Z,3.92
2023-02-23T21:20:00.991Z,3.86
2023-02-23T21:25:00.851Z,3.80
2023-02-23T21:30:00.688Z,3.70
2023-02-23T21:35:00.648Z,3.60
2023-02-23T21:40:00.713Z,3.50
2023-02-23T21:45:00.669Z,3.44
2023-02-23T21:50:00.837Z,3.38
2023-02-23T21:55:03.901Z,3.41
2023-02-23T22:00:01.110Z,3.40
2023-02-23T22:05:00.646Z,3.32
2023-02-23T22:10:01.001Z,3.32
2023-02-23T22:15:04.189Z,3.30
2023-02-23T22:20:01.187Z,3.25
2023-02-23T22:25:03.129Z,3.24
2023-02-23T22:30:00.758Z,3.23
2023-02-23T22:35:00.648Z,3.20
2023-02-23T22:40:00.648Z,3.13
2023-02-23T22:45:00.822Z,3.08
2023-02-23T22:50:01.296Z,3.01
2023-02-23T22:55:00.612Z,2.97
2023-02-23T23:00:01.542Z,2.88
2023-02-23T23:05:00.925Z,2.83
2023-02-23T23:10:00.700Z,2.75
2023-02-23T23:15:02.404Z,2.71
2023-02-23T23:20:00.737Z,2.65
2023-02-23T23:25:00.641Z,2.59
2023-02-23T23:30:00.672Z,2.55
2023-02-23T23:35:00.635Z,2.47
2023-02-23T23:40:00.618Z,2.42
2023-02-23T23:45:00.663Z,2.40
2023-02-23T23:50:00.644Z,2.37
2023-02-23T23:55:00.623Z,2.37
